Wetterstation Vordersexau
Wetterdaten: Woche 31.10.11 - 06.11.11 (KW44)
Datum Zeit Temp. A. Feuchte A. Luftdruck Regen Wind Richtung Taupunkt Windchill Windben
31.10.2011 00:00 8,1 C 82 % 1019,7 hPa 0,0 l/m 0,0 km/h O-NO 5,2 C 8,1 C 0,0 km/h
31.10.2011 01:00 7,3 C 82 % 1019,8 hPa 0,0 l/m 0,0 km/h NO 4,4 C 7,3 C 0,0 km/h
31.10.2011 02:00 7,1 C 81 % 1019,5 hPa 0,0 l/m 0,0 km/h O-NO 4,1 C 7,1 C 0,0 km/h
31.10.2011 03:00 6,6 C 80 % 1019,0 hPa 0,0 l/m 0,0 km/h O-NO 3,4 C 6,6 C 0,0 km/h
31.10.2011 04:00 5,9 C 81 % 1018,6 hPa 0,0 l/m 0,0 km/h NO 2,9 C 5,9 C 0,0 km/h
31.10.2011 05:00 5,4 C 81 % 1018,5 hPa 0,0 l/m 0,0 km/h O-NO 2,4 C 5,4 C 0,0 km/h
31.10.2011 06:00 4,8 C 81 % 1018,4 hPa 0,0 l/m 0,0 km/h S-SO 1,8 C 4,8 C 0,0 km/h
31.10.2011 07:00 4,4 C 80 % 1018,6 hPa 0,0 l/m 0,0 km/h O-NO 1,3 C 4,4 C 0,0 km/h
31.10.2011 08:00 7,3 C 77 % 1018,7 hPa 0,0 l/m 0,0 km/h SO 3,5 C 7,3 C 0,0 km/h
31.10.2011 09:00 9,4 C 72 % 1018,4 hPa 0,0 l/m 0,0 km/h N-NW 4,6 C 9,4 C 0,0 km/h
31.10.2011 10:00 11,6 C 76 % 1018,3 hPa 0,0 l/m 0,0 km/h N-NO 7,5 C 11,6 C 0,0 km/h
31.10.2011 11:00 11,9 C 82 % 1018,2 hPa 0,0 l/m 0,0 km/h N 8,9 C 11,9 C 0,0 km/h
31.10.2011 12:00 12,7 C 84 % 1017,5 hPa 0,0 l/m 0,0 km/h SO 10,1 C 12,7 C 0,0 km/h
31.10.2011 13:00 13,1 C 83 % 1017,0 hPa 0,0 l/m 0,0 km/h N-NO 10,3 C 13,1 C 0,0 km/h
31.10.2011 14:00 13,8 C 80 % 1016,3 hPa 0,0 l/m 0,0 km/h W-NW 10,4 C 13,8 C 0,0 km/h
31.10.2011 15:00 13,0 C 81 % 1016,1 hPa 0,0 l/m 0,0 km/h W 9,8 C 13,0 C 0,0 km/h
31.10.2011 16:00 11,9 C 83 % 1015,6 hPa 0,0 l/m 0,0 km/h W 9,1 C 11,9 C 0,0 km/h
31.10.2011 17:00 11,2 C 84 % 1015,6 hPa 0,0 l/m 0,0 km/h W 8,6 C 11,2 C 0,0 km/h
31.10.2011 18:00 10,4 C 84 % 1015,8 hPa 0,0 l/m 0,0 km/h N-NW 7,8 C 10,4 C 0,0 km/h
31.10.2011 19:00 10,1 C 84 % 1015,8 hPa 0,0 l/m 0,0 km/h SO 7,5 C 10,1 C 0,0 km/h
31.10.2011 20:00 9,3 C 83 % 1016,0 hPa 0,0 l/m 3,9 km/h O-NO 6,6 C 9,3 C 2,2 km/h
31.10.2011 21:00 7,3 C 83 % 1016,0 hPa 0,0 l/m 0,0 km/h O-NO 4,6 C 7,3 C 0,0 km/h
31.10.2011 22:00 6,1 C 83 % 1015,8 hPa 0,0 l/m 0,0 km/h O-NO 3,4 C 6,1 C 0,0 km/h
31.10.2011 23:00 5,5 C 83 % 1015,4 hPa 0,0 l/m 0,0 km/h O-NO 2,8 C 5,5 C 0,0 km/h
01.11.2011 00:00 6,9 C 80 % 1016,0 hPa 0,0 l/m 0,0 km/h SO 3,7 C 6,9 C 0,0 km/h
01.11.2011 01:00 8,1 C 78 % 1016,0 hPa 0,4 l/m 0,0 km/h SW 4,5 C 8,1 C 0,0 km/h
01.11.2011 02:00 7,9 C 77 % 1015,8 hPa 0,0 l/m 0,0 km/h S-SO 4,1 C 7,9 C 0,0 km/h
01.11.2011 03:00 7,3 C 77 % 1015,3 hPa 0,0 l/m 0,0 km/h O-SO 3,5 C 7,3 C 0,0 km/h
01.11.2011 04:00 7,2 C 76 % 1015,1 hPa 0,0 l/m 0,0 km/h NO 3,3 C 7,2 C 0,0 km/h
01.11.2011 05:00 6,8 C 76 % 1015,4 hPa 0,0 l/m 0,0 km/h NO 2,9 C 6,8 C 0,0 km/h
01.11.2011 06:00 5,6 C 77 % 1014,7 hPa 0,0 l/m 0,0 km/h NW 1,9 C 5,6 C 0,0 km/h
01.11.2011 07:00 5,8 C 76 % 1015,4 hPa 0,0 l/m 0,0 km/h N 1,9 C 5,8 C 0,0 km/h
01.11.2011 08:00 6,2 C 74 % 1015,5 hPa 0,0 l/m 0,0 km/h NW 1,9 C 6,2 C 0,0 km/h
01.11.2011 09:00 9,4 C 78 % 1015,4 hPa 0,0 l/m 0,0 km/h NW 5,8 C 9,4 C 0,0 km/h
01.11.2011 10:00 9,9 C 85 % 1015,4 hPa 0,0 l/m 0,0 km/h SW 7,5 C 9,9 C 0,0 km/h
01.11.2011 11:00 10,9 C 84 % 1015,2 hPa 0,0 l/m 0,0 km/h W-SW 8,3 C 10,9 C 0,0 km/h
01.11.2011 12:00 13,4 C 82 % 1014,7 hPa 0,0 l/m 0,0 km/h SO 10,4 C 13,4 C 0,0 km/h
01.11.2011 13:00 17,1 C 76 % 1014,2 hPa 0,0 l/m 0,0 km/h N-NO 12,8 C 17,1 C 0,0 km/h
01.11.2011 14:00 23,1 C 57 % 1013,8 hPa 0,0 l/m 0,0 km/h S-SO 14,1 C 23,1 C 0,0 km/h
01.11.2011 15:00 24,5 C 50 % 1013,4 hPa 0,0 l/m 0,0 km/h NO 13,4 C 24,5 C 0,0 km/h
01.11.2011 16:00 22,2 C 53 % 1013,4 hPa 0,0 l/m 0,0 km/h NO 12,2 C 22,2 C 0,0 km/h
01.11.2011 17:00 12,2 C 76 % 1013,7 hPa 0,0 l/m 0,0 km/h SO 8,1 C 12,2 C 0,0 km/h
01.11.2011 18:00 10,3 C 82 % 1014,5 hPa 0,0 l/m 0,0 km/h SO 7,4 C 10,3 C 0,0 km/h
01.11.2011 19:00 7,9 C 84 % 1014,8 hPa 0,0 l/m 0,0 km/h NO 5,4 C 7,9 C 0,0 km/h
01.11.2011 20:00 7,7 C 84 % 1015,3 hPa 0,0 l/m 0,0 km/h NO 5,2 C 7,7 C 0,0 km/h
01.11.2011 21:00 8,6 C 83 % 1015,5 hPa 0,0 l/m 0,0 km/h W-NW 5,9 C 8,6 C 0,0 km/h
01.11.2011 22:00 8,6 C 82 % 1016,4 hPa 0,0 l/m 0,0 km/h S-SO 5,7 C 8,6 C 0,0 km/h
01.11.2011 23:00 9,6 C 81 % 1016,2 hPa 0,0 l/m 0,0 km/h SO 6,5 C 9,6 C 0,0 km/h
02.11.2011 00:00 9,4 C 83 % 1015,9 hPa 0,0 l/m 0,6 km/h O-SO 6,7 C 9,4 C 0,4 km/h
02.11.2011 01:00 9,5 C 82 % 1015,7 hPa 0,0 l/m 0,0 km/h SO 6,6 C 9,5 C 0,0 km/h
02.11.2011 02:00 8,7 C 84 % 1015,5 hPa 0,0 l/m 0,0 km/h SO 6,2 C 8,7 C 0,0 km/h
02.11.2011 03:00 9,3 C 81 % 1015,0 hPa 0,0 l/m 0,0 km/h SO 6,2 C 9,3 C 0,0 km/h
02.11.2011 04:00 8,9 C 82 % 1014,8 hPa 0,0 l/m 1,3 km/h O-NO 6,0 C 8,9 C 0,7 km/h
02.11.2011 05:00 8,8 C 82 % 1014,6 hPa 0,0 l/m 0,0 km/h O-NO 5,9 C 8,8 C 0,0 km/h
02.11.2011 06:00 8,7 C 81 % 1014,3 hPa 0,0 l/m 0,0 km/h O-SO 5,6 C 8,7 C 0,0 km/h
02.11.2011 07:00 7,4 C 82 % 1014,2 hPa 0,0 l/m 0,0 km/h N 4,5 C 7,4 C 0,0 km/h
02.11.2011 08:00 11,4 C 80 % 1014,4 hPa 0,0 l/m 0,0 km/h W-SW 8,1 C 11,4 C 0,0 km/h
02.11.2011 09:00 16,1 C 76 % 1014,0 hPa 0,0 l/m 0,0 km/h W 11,9 C 16,1 C 0,0 km/h
02.11.2011 10:00 18,9 C 65 % 1013,3 hPa 0,0 l/m 0,0 km/h W 12,2 C 18,9 C 0,0 km/h
02.11.2011 11:00 18,2 C 62 % 1012,7 hPa 0,0 l/m 17,5 km/h W-SW 10,8 C 14,4 C 9,7 km/h
02.11.2011 12:00 18,9 C 64 % 1012,0 hPa 0,0 l/m 0,0 km/h NW 11,9 C 18,9 C 0,0 km/h
02.11.2011 13:00 20,6 C 59 % 1010,9 hPa 0,0 l/m 0,0 km/h NW 12,3 C 20,6 C 0,0 km/h
02.11.2011 14:00 22,9 C 52 % 1010,4 hPa 0,0 l/m 0,0 km/h NO 12,5 C 22,9 C 0,0 km/h
02.11.2011 15:00 23,3 C 50 % 1010,0 hPa 0,0 l/m 0,0 km/h N-NW 12,3 C 23,3 C 0,0 km/h
02.11.2011 16:00 19,3 C 62 % 1009,6 hPa 0,0 l/m 0,0 km/h O-SO 11,8 C 19,3 C 0,0 km/h
02.11.2011 17:00 11,8 C 77 % 1009,7 hPa 0,0 l/m 0,0 km/h O-NO 7,9 C 11,8 C 0,0 km/h
02.11.2011 18:00 9,9 C 83 % 1009,5 hPa 0,0 l/m 0,0 km/h SO 7,2 C 9,9 C 0,0 km/h
02.11.2011 19:00 9,3 C 84 % 1009,3 hPa 0,0 l/m 0,0 km/h NO 6,7 C 9,3 C 0,0 km/h
02.11.2011 20:00 8,6 C 84 % 1009,2 hPa 0,0 l/m 0,0 km/h NO 6,1 C 8,6 C 0,0 km/h
02.11.2011 21:00 7,9 C 83 % 1008,9 hPa 0,0 l/m 0,0 km/h O-SO 5,2 C 7,9 C 0,0 km/h
02.11.2011 22:00 7,2 C 83 % 1008,7 hPa 0,0 l/m 0,0 km/h NO 4,5 C 7,2 C 0,0 km/h
02.11.2011 23:00 5,9 C 84 % 1008,3 hPa 0,0 l/m 0,0 km/h NO 3,4 C 5,9 C 0,0 km/h
03.11.2011 00:00 6,1 C 83 % 1007,8 hPa 0,0 l/m 0,0 km/h N-NO 3,4 C 6,1 C 0,0 km/h
03.11.2011 01:00 5,8 C 82 % 1007,8 hPa 0,0 l/m 0,0 km/h SO 3,0 C 5,8 C 0,0 km/h
03.11.2011 02:00 5,9 C 81 % 1007,4 hPa 0,0 l/m 0,0 km/h O 2,9 C 5,9 C 0,0 km/h
03.11.2011 03:00 5,5 C 82 % 1006,9 hPa 0,0 l/m 0,0 km/h O-NO 2,7 C 5,5 C 0,0 km/h
03.11.2011 04:00 6,1 C 80 % 1006,8 hPa 0,0 l/m 0,0 km/h NO 2,9 C 6,1 C 0,0 km/h
03.11.2011 05:00 6,1 C 80 % 1006,7 hPa 0,0 l/m 0,0 km/h O-NO 2,9 C 6,1 C 0,0 km/h
03.11.2011 06:00 5,8 C 79 % 1006,2 hPa 0,0 l/m 0,0 km/h NO 2,4 C 5,8 C 0,0 km/h
03.11.2011 07:00 5,9 C 79 % 1005,9 hPa 0,0 l/m 0,0 km/h NO 2,5 C 5,9 C 0,0 km/h
03.11.2011 08:00 7,4 C 76 % 1006,4 hPa 0,0 l/m 0,0 km/h W-NW 3,5 C 7,4 C 0,0 km/h
03.11.2011 09:00 11,8 C 85 % 1007,1 hPa 0,0 l/m 0,0 km/h SO 9,4 C 11,8 C 0,0 km/h
03.11.2011 10:00 12,3 C 81 % 1006,4 hPa 0,0 l/m 0,0 km/h SO 9,1 C 12,3 C 0,0 km/h
03.11.2011 11:00 15,8 C 71 % 1005,6 hPa 0,0 l/m 11,0 km/h N 10,6 C 13,6 C 6,1 km/h
03.11.2011 12:00 15,4 C 73 % 1005,6 hPa 0,0 l/m 0,0 km/h SW 10,6 C 15,4 C 0,0 km/h
03.11.2011 13:00 14,5 C 75 % 1005,2 hPa 0,0 l/m 0,0 km/h NW 10,1 C 14,5 C 0,0 km/h
03.11.2011 14:00 14,7 C 75 % 1004,4 hPa 0,0 l/m 0,0 km/h W-NW 10,3 C 14,7 C 0,0 km/h
03.11.2011 15:00 14,1 C 77 % 1003,3 hPa 0,0 l/m 0,0 km/h W-NW 10,1 C 14,1 C 0,0 km/h
03.11.2011 16:00 14,1 C 77 % 1002,3 hPa 0,0 l/m 0,0 km/h SW 10,1 C 14,1 C 0,0 km/h
03.11.2011 17:00 11,1 C 83 % 1002,7 hPa 0,0 l/m 0,0 km/h W 8,3 C 11,1 C 0,0 km/h
03.11.2011 18:00 9,9 C 84 % 1002,7 hPa 0,0 l/m 0,0 km/h NO 7,3 C 9,9 C 0,0 km/h
03.11.2011 19:00 8,5 C 84 % 1002,2 hPa 0,0 l/m 0,0 km/h NO 6,0 C 8,5 C 0,0 km/h
03.11.2011 20:00 7,9 C 84 % 1001,9 hPa 0,0 l/m 0,0 km/h S-SO 5,4 C 7,9 C 0,0 km/h
03.11.2011 21:00 7,9 C 83 % 1001,9 hPa 0,0 l/m 0,0 km/h O-SO 5,2 C 7,9 C 0,0 km/h
03.11.2011 22:00 8,3 C 82 % 1002,2 hPa 0,0 l/m 0,0 km/h SO 5,4 C 8,3 C 0,0 km/h
03.11.2011 23:00 9,1 C 80 % 999,7 hPa 0,0 l/m 7,8 km/h W-NW 5,8 C 8,1 C 4,3 km/h
04.11.2011 00:00 10,9 C 84 % 1001,0 hPa 0,0 l/m 0,0 km/h S-SW 8,3 C 10,9 C 0,0 km/h
04.11.2011 01:00 9,8 C 84 % 1001,5 hPa 0,0 l/m 0,0 km/h NO 7,2 C 9,8 C 0,0 km/h
04.11.2011 02:00 9,3 C 83 % 1000,5 hPa 0,0 l/m 0,0 km/h N-NO 6,6 C 9,3 C 0,0 km/h
04.11.2011 03:00 9,3 C 81 % 1001,7 hPa 0,0 l/m 0,0 km/h N-NO 6,2 C 9,3 C 0,0 km/h
04.11.2011 04:00 9,9 C 81 % 1000,8 hPa 0,0 l/m 2,6 km/h W 6,8 C 9,9 C 1,4 km/h
04.11.2011 05:00 9,6 C 83 % 1001,3 hPa 0,0 l/m 0,0 km/h S-SO 6,9 C 9,6 C 0,0 km/h
04.11.2011 06:00 9,3 C 81 % 1003,6 hPa 0,0 l/m 0,0 km/h SO 6,2 C 9,3 C 0,0 km/h
04.11.2011 07:00 8,7 C 80 % 1004,5 hPa 0,0 l/m 0,0 km/h O-NO 5,4 C 8,7 C 0,0 km/h
04.11.2011 08:00 10,1 C 78 % 1004,6 hPa 0,0 l/m 0,0 km/h O-SO 6,4 C 10,1 C 0,0 km/h
04.11.2011 09:00 12,5 C 83 % 1004,5 hPa 0,0 l/m 0,0 km/h S-SO 9,7 C 12,5 C 0,0 km/h
04.11.2011 10:00 14,0 C 82 % 1003,9 hPa 0,0 l/m 0,0 km/h W 11,0 C 14,0 C 0,0 km/h
04.11.2011 11:00 15,4 C 80 % 1003,8 hPa 0,0 l/m 0,0 km/h W 12,0 C 15,4 C 0,0 km/h
04.11.2011 12:00 13,3 C 82 % 1003,2 hPa 0,0 l/m 0,0 km/h W-NW 10,3 C 13,3 C 0,0 km/h
04.11.2011 13:00 12,9 C 83 % 1003,1 hPa 0,0 l/m 0,0 km/h W 10,1 C 12,9 C 0,0 km/h
04.11.2011 14:00 12,1 C 84 % 1003,4 hPa 0,0 l/m 0,0 km/h W-NW 9,5 C 12,1 C 0,0 km/h
04.11.2011 15:00 12,2 C 84 % 1002,8 hPa 0,0 l/m 0,0 km/h W-NW 9,6 C 12,2 C 0,0 km/h
04.11.2011 16:00 11,4 C 84 % 1002,9 hPa 0,0 l/m 0,0 km/h W-NW 8,8 C 11,4 C 0,0 km/h
04.11.2011 17:00 10,3 C 84 % 1002,9 hPa 0,0 l/m 0,0 km/h W 7,7 C 10,3 C 0,0 km/h
04.11.2011 18:00 9,8 C 83 % 1003,5 hPa 0,0 l/m 0,0 km/h W 7,1 C 9,8 C 0,0 km/h
04.11.2011 19:00 8,7 C 83 % 1003,4 hPa 0,0 l/m 0,0 km/h S-SO 6,0 C 8,7 C 0,0 km/h
04.11.2011 20:00 8,3 C 82 % 1002,9 hPa 0,0 l/m 0,0 km/h S-SO 5,4 C 8,3 C 0,0 km/h
04.11.2011 21:00 7,7 C 82 % 1002,1 hPa 0,0 l/m 0,0 km/h SO 4,8 C 7,7 C 0,0 km/h
04.11.2011 22:00 8,4 C 80 % 1002,3 hPa 0,0 l/m 0,0 km/h SO 5,2 C 8,4 C 0,0 km/h
04.11.2011 23:00 8,6 C 79 % 1002,4 hPa 0,0 l/m 0,0 km/h SO 5,2 C 8,6 C 0,0 km/h
05.11.2011 00:00 8,6 C 79 % 1002,7 hPa 0,0 l/m 0,0 km/h SO 5,2 C 8,6 C 0,0 km/h
05.11.2011 01:00 8,9 C 77 % 1002,0 hPa 0,0 l/m 0,0 km/h W 5,1 C 8,9 C 0,0 km/h
05.11.2011 02:00 8,9 C 76 % 1001,8 hPa 0,0 l/m 0,0 km/h W-SW 4,9 C 8,9 C 0,0 km/h
05.11.2011 03:00 8,9 C 75 % 1002,0 hPa 0,0 l/m 4,5 km/h O-SO 4,7 C 8,9 C 2,5 km/h
05.11.2011 04:00 8,9 C 75 % 1001,8 hPa 0,0 l/m 0,0 km/h W-SW 4,7 C 8,9 C 0,0 km/h
05.11.2011 05:00 8,7 C 74 % 1002,7 hPa 0,0 l/m 0,0 km/h W-SW 4,3 C 8,7 C 0,0 km/h
05.11.2011 06:00 8,7 C 74 % 1003,0 hPa 0,0 l/m 0,0 km/h SO 4,3 C 8,7 C 0,0 km/h
05.11.2011 07:00 8,7 C 74 % 1003,1 hPa 0,0 l/m 0,0 km/h W 4,3 C 8,7 C 0,0 km/h
05.11.2011 08:00 8,9 C 73 % 1003,4 hPa 0,0 l/m 0,0 km/h N-NO 4,3 C 8,9 C 0,0 km/h
05.11.2011 09:00 9,8 C 74 % 1003,8 hPa 0,0 l/m 0,0 km/h W-NW 5,4 C 9,8 C 0,0 km/h
05.11.2011 10:00 10,9 C 83 % 1004,2 hPa 0,0 l/m 2,6 km/h W-SW 8,1 C 10,9 C 1,4 km/h
05.11.2011 11:00 12,2 C 84 % 1004,5 hPa 0,0 l/m 0,0 km/h W-NW 9,6 C 12,2 C 0,0 km/h
05.11.2011 12:00 13,3 C 81 % 1004,0 hPa 0,0 l/m 1,9 km/h W 10,1 C 13,3 C 1,1 km/h
05.11.2011 13:00 13,1 C 80 % 1004,3 hPa 0,0 l/m 0,0 km/h N 9,7 C 13,1 C 0,0 km/h
05.11.2011 14:00 14,4 C 79 % 1004,2 hPa 0,0 l/m 0,0 km/h W-NW 10,8 C 14,4 C 0,0 km/h
05.11.2011 15:00 15,4 C 75 % 1004,1 hPa 0,0 l/m 0,0 km/h W-NW 11,0 C 15,4 C 0,0 km/h
05.11.2011 16:00 13,9 C 76 % 1004,3 hPa 0,0 l/m 0,0 km/h W-SW 9,7 C 13,9 C 0,0 km/h
05.11.2011 17:00 10,0 C 84 % 1005,2 hPa 0,0 l/m 0,0 km/h NO 7,4 C 10,0 C 0,0 km/h
05.11.2011 18:00 9,0 C 84 % 1005,2 hPa 0,0 l/m 0,0 km/h O-NO 6,4 C 9,0 C 0,0 km/h
05.11.2011 19:00 7,8 C 84 % 1005,6 hPa 0,0 l/m 0,0 km/h NO 5,3 C 7,8 C 0,0 km/h
05.11.2011 20:00 8,2 C 83 % 1005,5 hPa 0,0 l/m 0,0 km/h NO 5,5 C 8,2 C 0,0 km/h
05.11.2011 21:00 7,6 C 83 % 1005,1 hPa 0,0 l/m 0,0 km/h N-NO 4,9 C 7,6 C 0,0 km/h
05.11.2011 22:00 7,5 C 82 % 1005,0 hPa 0,0 l/m 0,0 km/h NO 4,6 C 7,5 C 0,0 km/h
05.11.2011 23:00 6,9 C 81 % 1005,2 hPa 0,0 l/m 0,0 km/h SW 3,9 C 6,9 C 0,0 km/h
06.11.2011 00:00 7,8 C 80 % 1005,8 hPa 0,0 l/m 0,6 km/h SW 4,6 C 7,8 C 0,4 km/h
06.11.2011 01:00 8,6 C 78 % 1005,8 hPa 0,0 l/m 0,0 km/h S-SW 5,0 C 8,6 C 0,0 km/h
06.11.2011 02:00 8,8 C 77 % 1005,6 hPa 0,0 l/m 0,0 km/h S 5,0 C 8,8 C 0,0 km/h
06.11.2011 03:00 8,6 C 77 % 1005,8 hPa 0,0 l/m 0,0 km/h SW 4,8 C 8,6 C 0,0 km/h
06.11.2011 04:00 8,5 C 77 % 1005,6 hPa 0,0 l/m 0,0 km/h SW 4,7 C 8,5 C 0,0 km/h
06.11.2011 05:00 8,5 C 77 % 1005,7 hPa 0,0 l/m 0,0 km/h W-SW 4,7 C 8,5 C 0,0 km/h
06.11.2011 06:00 8,4 C 76 % 1006,0 hPa 0,0 l/m 0,0 km/h NW 4,4 C 8,4 C 0,0 km/h
06.11.2011 07:00 8,1 C 75 % 1006,6 hPa 0,0 l/m 0,0 km/h N-NW 3,9 C 8,1 C 0,0 km/h
06.11.2011 08:00 7,9 C 74 % 1007,4 hPa 0,0 l/m 0,0 km/h W-NW 3,6 C 7,9 C 0,0 km/h
06.11.2011 09:00 8,3 C 73 % 1007,9 hPa 0,0 l/m 0,0 km/h N-NW 3,8 C 8,3 C 0,0 km/h
06.11.2011 10:00 8,6 C 74 % 1008,2 hPa 0,0 l/m 0,0 km/h W 4,2 C 8,6 C 0,0 km/h
06.11.2011 11:00 8,8 C 78 % 1008,4 hPa 0,0 l/m 0,0 km/h S-SW 5,2 C 8,8 C 0,0 km/h
06.11.2011 12:00 9,4 C 81 % 1008,4 hPa 0,0 l/m 3,9 km/h W 6,3 C 9,4 C 2,2 km/h
06.11.2011 13:00 9,6 C 84 % 1008,4 hPa 0,0 l/m 0,0 km/h S-SW 7,0 C 9,6 C 0,0 km/h
06.11.2011 14:00 9,2 C 85 % 1008,7 hPa 0,0 l/m 1,9 km/h S 6,8 C 9,2 C 1,1 km/h
06.11.2011 15:00 10,2 C 85 % 1008,7 hPa 0,0 l/m 0,0 km/h S 7,8 C 10,2 C 0,0 km/h
06.11.2011 16:00 11,1 C 84 % 1009,0 hPa 0,0 l/m 0,0 km/h O-NO 8,5 C 11,1 C 0,0 km/h
06.11.2011 17:00 7,4 C 85 % 1009,6 hPa 0,0 l/m 0,0 km/h O-SO 5,0 C 7,4 C 0,0 km/h
06.11.2011 18:00 6,6 C 85 % 1009,7 hPa 0,0 l/m 0,0 km/h O 4,3 C 6,6 C 0,0 km/h
06.11.2011 19:00 5,9 C 84 % 1010,1 hPa 0,0 l/m 0,0 km/h NO 3,4 C 5,9 C 0,0 km/h
06.11.2011 20:00 5,8 C 84 % 1010,1 hPa 0,0 l/m 0,0 km/h NO 3,3 C 5,8 C 0,0 km/h
06.11.2011 21:00 5,4 C 83 % 1010,4 hPa 0,0 l/m 0,0 km/h O-NO 2,7 C 5,4 C 0,0 km/h
06.11.2011 22:00 4,6 C 82 % 1011,1 hPa 0,0 l/m 0,0 km/h NO 1,8 C 4,6 C 0,0 km/h
06.11.2011 23:00 5,9 C 80 % 1011,5 hPa 0,0 l/m 0,0 km/h N-NO 2,7 C 5,9 C 0,0 km/h
Min-Datum _ 31.10.11 01.11.11 03.11.11 - 31.10.11 - 31.10.11 31.10.11 31.10.11
_ Min-Zeit 07:30 15:30 23:30 - 00:30 - 07:30 07:30 00:30
Minimum _ 4,4 C 50 % 999,7 hPa - 0,0 km/h - 1,3 C 4,4 C 0,0 km/h
Max-Datum _ 01.11.11 01.11.11 31.10.11 01.11.11 02.11.11 - 01.11.11 01.11.11 02.11.11
_ Max-Zeit 15:30 10:30 01:30 01:30 11:30 - 14:30 15:30 11:30
Maximum _ 24,5 C 85 % 1019,8 hPa 0,4 l/m 17,5 km/h
W-SW
- 14,1 C 24,5 C 9,7 km/h
W-SW
Durchschnitt _ 10,0 C 79 % 1009,2 hPa #0,4 l/m 0,4 km/h NO 6,5 C 10,0 C 0,2 km/h
www.sexauwetter.de